Terminal Aerodrome Forecast
Issued by NWS

Current Version | Previous Version | Text Only | Print | Product List | Glossary On
Versions: 1 2 3 4 5 6 7 8 9 10 11 12 13 14 15
000
FTUS45 KABQ 011138
TAFGUP
TAF
KGUP 011138Z 0112/0212 VRB06KT P6SM SCT035 BKN090
     FM011800 24007KT P6SM VCTS BKN060CB BKN100
      TEMPO 0119/0123 VRB15G25KT SHRA BKN040
     FM020000 22010KT P6SM VCSH BKN080
     FM020600 VRB06KT P6SM FEW025 BKN090=

USA.gov is the U.S. government's official web portal to all federal, state and local government web resources and services.